sensor_id;sensor_type;location;lat;lon;timestamp;P1;durP1;ratioP1;P2;durP2;ratioP2
74963;SDS011;63521;51.900;4.748;2023-04-01T00:01:45;3.78;;;1.45;;
74963;SDS011;63521;51.900;4.748;2023-04-01T00:04:11;5.57;;;1.60;;
74963;SDS011;63521;51.900;4.748;2023-04-01T00:06:36;4.05;;;1.48;;
74963;SDS011;63521;51.900;4.748;2023-04-01T00:09:02;3.88;;;1.60;;
74963;SDS011;63521;51.900;4.748;2023-04-01T00:11:27;2.47;;;1.40;;
74963;SDS011;63521;51.900;4.748;2023-04-01T00:13:53;4.43;;;1.30;;
74963;SDS011;63521;51.900;4.748;2023-04-01T00:16:18;3.55;;;1.30;;
74963;SDS011;63521;51.900;4.748;2023-04-01T00:18:44;5.68;;;1.85;;
74963;SDS011;63521;51.900;4.748;2023-04-01T00:21:12;4.07;;;1.50;;
74963;SDS011;63521;51.900;4.748;2023-04-01T00:23:37;2.45;;;1.33;;
74963;SDS011;63521;51.900;4.748;2023-04-01T00:26:03;3.38;;;1.48;;
74963;SDS011;63521;51.900;4.748;2023-04-01T00:28:28;3.33;;;1.45;;
74963;SDS011;63521;51.900;4.748;2023-04-01T00:30:54;2.85;;;1.40;;
74963;SDS011;63521;51.900;4.748;2023-04-01T00:33:20;5.47;;;1.73;;
74963;SDS011;63521;51.900;4.748;2023-04-01T00:35:45;5.85;;;1.90;;
74963;SDS011;63521;51.900;4.748;2023-04-01T00:38:11;4.25;;;1.70;;
74963;SDS011;63521;51.900;4.748;2023-04-01T00:40:41;3.38;;;1.48;;
74963;SDS011;63521;51.900;4.748;2023-04-01T00:43:12;3.25;;;1.70;;
74963;SDS011;63521;51.900;4.748;2023-04-01T00:45:41;6.70;;;1.85;;
74963;SDS011;63521;51.900;4.748;2023-04-01T00:48:10;3.00;;;1.30;;
74963;SDS011;63521;51.900;4.748;2023-04-01T00:50:38;3.67;;;1.63;;
74963;SDS011;63521;51.900;4.748;2023-04-01T00:53:06;5.32;;;1.77;;
74963;SDS011;63521;51.900;4.748;2023-04-01T00:55:33;4.78;;;1.65;;
74963;SDS011;63521;51.900;4.748;2023-04-01T00:57:59;5.50;;;1.70;;
74963;SDS011;63521;51.900;4.748;2023-04-01T01:00:27;5.13;;;1.65;;
74963;SDS011;63521;51.900;4.748;2023-04-01T01:02:52;4.07;;;1.83;;
74963;SDS011;63521;51.900;4.748;2023-04-01T01:05:19;5.13;;;1.75;;
74963;SDS011;63521;51.900;4.748;2023-04-01T01:08:01;3.45;;;1.95;;
74963;SDS011;63521;51.900;4.748;2023-04-01T01:10:32;4.25;;;1.52;;
74963;SDS011;63521;51.900;4.748;2023-04-01T01:15:31;5.13;;;1.67;;
74963;SDS011;63521;51.900;4.748;2023-04-01T01:18:02;4.40;;;1.52;;
74963;SDS011;63521;51.900;4.748;2023-04-01T01:26:20;6.53;;;1.73;;
74963;SDS011;63521;51.900;4.748;2023-04-01T01:29:23;5.68;;;2.05;;
74963;SDS011;63521;51.900;4.748;2023-04-01T01:32:16;4.07;;;1.77;;
74963;SDS011;63521;51.900;4.748;2023-04-01T01:34:51;4.47;;;1.50;;
74963;SDS011;63521;51.900;4.748;2023-04-01T01:37:27;7.78;;;1.80;;
74963;SDS011;63521;51.900;4.748;2023-04-01T01:39:56;5.95;;;2.00;;
74963;SDS011;63521;51.900;4.748;2023-04-01T01:42:23;4.05;;;1.88;;
74963;SDS011;63521;51.900;4.748;2023-04-01T01:44:50;5.18;;;1.98;;
74963;SDS011;63521;51.900;4.748;2023-04-01T01:47:17;4.30;;;1.80;;
74963;SDS011;63521;51.900;4.748;2023-04-01T01:49:43;4.72;;;2.00;;
74963;SDS011;63521;51.900;4.748;2023-04-01T01:52:10;4.82;;;2.00;;
74963;SDS011;63521;51.900;4.748;2023-04-01T01:54:36;3.53;;;1.80;;
74963;SDS011;63521;51.900;4.748;2023-04-01T01:57:11;6.53;;;1.90;;
74963;SDS011;63521;51.900;4.748;2023-04-01T01:59:37;3.28;;;1.88;;
74963;SDS011;63521;51.900;4.748;2023-04-01T02:02:03;5.85;;;1.73;;
74963;SDS011;63521;51.900;4.748;2023-04-01T02:04:42;6.25;;;2.20;;
74963;SDS011;63521;51.900;4.748;2023-04-01T02:07:18;4.38;;;1.85;;
74963;SDS011;63521;51.900;4.748;2023-04-01T02:09:47;6.45;;;2.35;;
74963;SDS011;63521;51.900;4.748;2023-04-01T02:12:13;3.53;;;1.90;;
74963;SDS011;63521;51.900;4.748;2023-04-01T02:17:22;3.45;;;1.88;;
74963;SDS011;63521;51.900;4.748;2023-04-01T02:19:53;4.90;;;1.98;;
74963;SDS011;63521;51.900;4.748;2023-04-01T02:22:23;4.90;;;1.80;;
74963;SDS011;63521;51.900;4.748;2023-04-01T02:24:50;3.00;;;1.80;;
74963;SDS011;63521;51.900;4.748;2023-04-01T02:27:17;5.15;;;2.22;;
74963;SDS011;63521;51.900;4.748;2023-04-01T02:29:43;3.97;;;1.80;;
74963;SDS011;63521;51.900;4.748;2023-04-01T02:32:08;4.07;;;1.80;;
74963;SDS011;63521;51.900;4.748;2023-04-01T02:34:35;5.10;;;1.65;;
74963;SDS011;63521;51.900;4.748;2023-04-01T02:37:00;3.13;;;1.77;;
74963;SDS011;63521;51.900;4.748;2023-04-01T02:39:26;3.42;;;1.60;;
74963;SDS011;63521;51.900;4.748;2023-04-01T02:41:52;5.47;;;1.85;;
74963;SDS011;63521;51.900;4.748;2023-04-01T02:44:18;4.70;;;1.77;;
74963;SDS011;63521;51.900;4.748;2023-04-01T02:46:44;2.22;;;1.40;;
74963;SDS011;63521;51.900;4.748;2023-04-01T02:49:09;2.65;;;1.50;;
74963;SDS011;63521;51.900;4.748;2023-04-01T02:51:35;3.35;;;1.75;;
74963;SDS011;63521;51.900;4.748;2023-04-01T02:54:01;2.38;;;1.65;;
74963;SDS011;63521;51.900;4.748;2023-04-01T02:56:26;3.67;;;1.60;;
74963;SDS011;63521;51.900;4.748;2023-04-01T02:58:52;3.50;;;1.80;;
74963;SDS011;63521;51.900;4.748;2023-04-01T03:01:18;3.72;;;1.60;;
74963;SDS011;63521;51.900;4.748;2023-04-01T03:03:44;2.58;;;1.58;;
74963;SDS011;63521;51.900;4.748;2023-04-01T03:06:10;2.53;;;1.63;;
74963;SDS011;63521;51.900;4.748;2023-04-01T03:08:37;2.15;;;1.17;;
74963;SDS011;63521;51.900;4.748;2023-04-01T03:11:03;4.53;;;1.77;;
74963;SDS011;63521;51.900;4.748;2023-04-01T03:13:28;2.88;;;1.40;;
74963;SDS011;63521;51.900;4.748;2023-04-01T03:15:54;2.67;;;1.15;;
74963;SDS011;63521;51.900;4.748;2023-04-01T03:18:19;3.42;;;1.67;;
74963;SDS011;63521;51.900;4.748;2023-04-01T03:20:45;2.83;;;1.40;;
74963;SDS011;63521;51.900;4.748;2023-04-01T03:23:10;3.50;;;1.52;;
74963;SDS011;63521;51.900;4.748;2023-04-01T03:25:36;2.65;;;1.50;;
74963;SDS011;63521;51.900;4.748;2023-04-01T03:28:01;3.22;;;1.60;;
74963;SDS011;63521;51.900;4.748;2023-04-01T03:30:27;3.85;;;1.80;;
74963;SDS011;63521;51.900;4.748;2023-04-01T03:32:54;2.40;;;1.40;;
74963;SDS011;63521;51.900;4.748;2023-04-01T03:35:20;3.17;;;1.50;;
74963;SDS011;63521;51.900;4.748;2023-04-01T03:37:45;3.72;;;1.67;;
74963;SDS011;63521;51.900;4.748;2023-04-01T03:40:11;2.60;;;1.38;;
74963;SDS011;63521;51.900;4.748;2023-04-01T03:42:36;3.92;;;1.95;;
74963;SDS011;63521;51.900;4.748;2023-04-01T03:45:02;3.25;;;1.50;;
74963;SDS011;63521;51.900;4.748;2023-04-01T03:47:29;2.88;;;1.70;;
74963;SDS011;63521;51.900;4.748;2023-04-01T03:49:54;2.83;;;1.58;;
74963;SDS011;63521;51.900;4.748;2023-04-01T03:52:20;5.30;;;2.20;;
74963;SDS011;63521;51.900;4.748;2023-04-01T03:54:45;2.42;;;1.40;;
74963;SDS011;63521;51.900;4.748;2023-04-01T03:57:10;2.30;;;1.50;;
74963;SDS011;63521;51.900;4.748;2023-04-01T03:59:36;3.13;;;1.70;;
74963;SDS011;63521;51.900;4.748;2023-04-01T04:02:01;2.78;;;1.67;;
74963;SDS011;63521;51.900;4.748;2023-04-01T04:04:27;4.22;;;1.85;;
74963;SDS011;63521;51.900;4.748;2023-04-01T04:06:53;3.97;;;1.60;;
74963;SDS011;63521;51.900;4.748;2023-04-01T04:09:18;4.40;;;1.90;;
74963;SDS011;63521;51.900;4.748;2023-04-01T04:11:44;3.63;;;1.88;;
74963;SDS011;63521;51.900;4.748;2023-04-01T04:14:09;4.00;;;1.90;;
74963;SDS011;63521;51.900;4.748;2023-04-01T04:16:35;3.17;;;1.77;;
74963;SDS011;63521;51.900;4.748;2023-04-01T04:19:04;2.97;;;1.70;;
74963;SDS011;63521;51.900;4.748;2023-04-01T04:21:29;3.50;;;2.03;;
74963;SDS011;63521;51.900;4.748;2023-04-01T04:23:55;4.25;;;1.95;;
74963;SDS011;63521;51.900;4.748;2023-04-01T04:26:20;5.05;;;2.28;;
74963;SDS011;63521;51.900;4.748;2023-04-01T04:28:45;3.28;;;2.28;;
74963;SDS011;63521;51.900;4.748;2023-04-01T04:31:11;3.97;;;1.85;;
74963;SDS011;63521;51.900;4.748;2023-04-01T04:33:37;5.35;;;2.10;;
74963;SDS011;63521;51.900;4.748;2023-04-01T04:36:03;4.28;;;2.15;;
74963;SDS011;63521;51.900;4.748;2023-04-01T04:38:29;3.85;;;2.08;;
74963;SDS011;63521;51.900;4.748;2023-04-01T04:40:55;5.95;;;2.30;;
74963;SDS011;63521;51.900;4.748;2023-04-01T04:43:20;4.20;;;2.30;;
74963;SDS011;63521;51.900;4.748;2023-04-01T04:45:46;5.05;;;1.90;;
74963;SDS011;63521;51.900;4.748;2023-04-01T04:48:12;3.75;;;1.70;;
74963;SDS011;63521;51.900;4.748;2023-04-01T04:50:44;3.88;;;1.98;;
74963;SDS011;63521;51.900;4.748;2023-04-01T04:53:12;4.18;;;1.95;;
74963;SDS011;63521;51.900;4.748;2023-04-01T04:55:41;4.63;;;1.95;;
74963;SDS011;63521;51.900;4.748;2023-04-01T04:58:08;4.40;;;1.83;;
74963;SDS011;63521;51.900;4.748;2023-04-01T05:00:33;4.47;;;1.80;;
74963;SDS011;63521;51.900;4.748;2023-04-01T05:02:58;4.60;;;2.00;;
74963;SDS011;63521;51.900;4.748;2023-04-01T05:05:24;4.18;;;2.10;;
74963;SDS011;63521;51.900;4.748;2023-04-01T05:07:50;4.70;;;1.95;;
74963;SDS011;63521;51.900;4.748;2023-04-01T05:10:15;3.78;;;1.90;;
74963;SDS011;63521;51.900;4.748;2023-04-01T05:12:40;6.47;;;2.15;;
74963;SDS011;63521;51.900;4.748;2023-04-01T05:15:06;4.90;;;1.95;;
74963;SDS011;63521;51.900;4.748;2023-04-01T05:17:32;5.05;;;2.17;;
74963;SDS011;63521;51.900;4.748;2023-04-01T05:19:58;6.72;;;2.95;;
74963;SDS011;63521;51.900;4.748;2023-04-01T05:22:23;4.28;;;1.80;;
74963;SDS011;63521;51.900;4.748;2023-04-01T05:24:49;5.22;;;2.70;;
74963;SDS011;63521;51.900;4.748;2023-04-01T05:27:14;4.65;;;2.10;;
74963;SDS011;63521;51.900;4.748;2023-04-01T05:29:40;5.57;;;2.13;;
74963;SDS011;63521;51.900;4.748;2023-04-01T05:32:05;4.35;;;2.03;;
74963;SDS011;63521;51.900;4.748;2023-04-01T05:34:31;5.05;;;2.28;;
74963;SDS011;63521;51.900;4.748;2023-04-01T05:36:56;4.90;;;2.10;;
74963;SDS011;63521;51.900;4.748;2023-04-01T05:39:22;4.40;;;2.17;;
74963;SDS011;63521;51.900;4.748;2023-04-01T05:41:48;5.38;;;2.20;;
74963;SDS011;63521;51.900;4.748;2023-04-01T05:44:13;4.60;;;2.28;;
74963;SDS011;63521;51.900;4.748;2023-04-01T05:46:39;8.80;;;2.50;;
74963;SDS011;63521;51.900;4.748;2023-04-01T06:03:47;6.05;;;2.70;;
74963;SDS011;63521;51.900;4.748;2023-04-01T06:06:24;4.93;;;2.38;;
74963;SDS011;63521;51.900;4.748;2023-04-01T06:08:51;6.78;;;2.63;;
74963;SDS011;63521;51.900;4.748;2023-04-01T06:15:03;6.18;;;2.40;;
74963;SDS011;63521;51.900;4.748;2023-04-01T06:17:16;5.85;;;2.50;;
74963;SDS011;63521;51.900;4.748;2023-04-01T06:19:49;5.93;;;2.22;;
74963;SDS011;63521;51.900;4.748;2023-04-01T06:25:14;4.28;;;2.45;;
74963;SDS011;63521;51.900;4.748;2023-04-01T06:30:32;5.65;;;2.60;;
74963;SDS011;63521;51.900;4.748;2023-04-01T06:36:15;4.85;;;2.13;;
74963;SDS011;63521;51.900;4.748;2023-04-01T06:39:01;4.05;;;2.10;;
74963;SDS011;63521;51.900;4.748;2023-04-01T06:55:43;5.85;;;2.67;;
74963;SDS011;63521;51.900;4.748;2023-04-01T06:58:21;5.35;;;2.85;;
74963;SDS011;63521;51.900;4.748;2023-04-01T07:00:49;7.15;;;3.00;;
74963;SDS011;63521;51.900;4.748;2023-04-01T07:03:21;5.57;;;2.42;;
74963;SDS011;63521;51.900;4.748;2023-04-01T07:05:52;6.28;;;2.70;;
74963;SDS011;63521;51.900;4.748;2023-04-01T07:08:21;6.18;;;3.00;;
74963;SDS011;63521;51.900;4.748;2023-04-01T07:11:04;9.27;;;3.08;;
74963;SDS011;63521;51.900;4.748;2023-04-01T07:13:43;7.68;;;2.90;;
74963;SDS011;63521;51.900;4.748;2023-04-01T07:18:55;5.38;;;2.83;;
74963;SDS011;63521;51.900;4.748;2023-04-01T07:21:26;5.60;;;2.95;;
74963;SDS011;63521;51.900;4.748;2023-04-01T07:23:56;6.88;;;3.70;;
74963;SDS011;63521;51.900;4.748;2023-04-01T07:26:25;5.93;;;2.78;;
74963;SDS011;63521;51.900;4.748;2023-04-01T07:28:52;5.68;;;3.00;;
74963;SDS011;63521;51.900;4.748;2023-04-01T07:34:09;5.88;;;3.05;;
74963;SDS011;63521;51.900;4.748;2023-04-01T07:36:47;6.75;;;3.20;;
74963;SDS011;63521;51.900;4.748;2023-04-01T07:44:49;5.97;;;3.00;;
74963;SDS011;63521;51.900;4.748;2023-04-01T07:47:41;6.68;;;3.13;;
74963;SDS011;63521;51.900;4.748;2023-04-01T07:58:20;6.45;;;2.85;;
74963;SDS011;63521;51.900;4.748;2023-04-01T08:03:43;6.65;;;2.90;;
74963;SDS011;63521;51.900;4.748;2023-04-01T08:06:18;6.28;;;3.05;;
74963;SDS011;63521;51.900;4.748;2023-04-01T08:08:56;6.50;;;2.83;;
74963;SDS011;63521;51.900;4.748;2023-04-01T08:11:31;6.68;;;3.00;;
74963;SDS011;63521;51.900;4.748;2023-04-01T08:14:11;5.60;;;2.63;;
74963;SDS011;63521;51.900;4.748;2023-04-01T08:22:41;4.22;;;2.47;;
74963;SDS011;63521;51.900;4.748;2023-04-01T08:25:10;5.45;;;2.70;;
74963;SDS011;63521;51.900;4.748;2023-04-01T08:27:43;5.55;;;2.45;;
74963;SDS011;63521;51.900;4.748;2023-04-01T08:32:59;4.55;;;2.13;;
74963;SDS011;63521;51.900;4.748;2023-04-01T08:35:38;4.47;;;2.28;;
74963;SDS011;63521;51.900;4.748;2023-04-01T08:43:48;4.20;;;2.10;;
74963;SDS011;63521;51.900;4.748;2023-04-01T09:02:48;6.00;;;2.33;;
74963;SDS011;63521;51.900;4.748;2023-04-01T09:05:29;4.30;;;2.03;;
74963;SDS011;63521;51.900;4.748;2023-04-01T09:08:03;4.55;;;2.20;;
74963;SDS011;63521;51.900;4.748;2023-04-01T09:16:27;4.00;;;2.05;;
74963;SDS011;63521;51.900;4.748;2023-04-01T09:30:39;4.40;;;2.05;;
74963;SDS011;63521;51.900;4.748;2023-04-01T09:50:03;6.43;;;2.00;;
74963;SDS011;63521;51.900;4.748;2023-04-01T10:05:19;7.65;;;2.88;;
74963;SDS011;63521;51.900;4.748;2023-04-01T10:10:45;11.45;;;4.20;;
74963;SDS011;63521;51.900;4.748;2023-04-01T10:13:39;10.57;;;3.88;;
74963;SDS011;63521;51.900;4.748;2023-04-01T10:24:17;11.05;;;3.30;;
74963;SDS011;63521;51.900;4.748;2023-04-01T10:27:11;11.82;;;3.67;;
74963;SDS011;63521;51.900;4.748;2023-04-01T10:44:28;6.70;;;2.95;;
74963;SDS011;63521;51.900;4.748;2023-04-01T10:50:24;7.57;;;3.30;;
74963;SDS011;63521;51.900;4.748;2023-04-01T10:58:50;6.55;;;2.67;;
74963;SDS011;63521;51.900;4.748;2023-04-01T11:20:25;6.22;;;2.97;;
74963;SDS011;63521;51.900;4.748;2023-04-01T11:23:18;7.15;;;2.72;;
74963;SDS011;63521;51.900;4.748;2023-04-01T11:28:47;5.68;;;2.50;;
74963;SDS011;63521;51.900;4.748;2023-04-01T11:37:24;4.93;;;2.35;;
74963;SDS011;63521;51.900;4.748;2023-04-01T11:40:45;5.40;;;2.40;;
74963;SDS011;63521;51.900;4.748;2023-04-01T11:42:53;4.47;;;2.20;;
74963;SDS011;63521;51.900;4.748;2023-04-01T11:48:13;4.05;;;1.85;;
74963;SDS011;63521;51.900;4.748;2023-04-01T11:50:59;4.50;;;2.08;;
74963;SDS011;63521;51.900;4.748;2023-04-01T11:59:18;4.55;;;2.10;;
74963;SDS011;63521;51.900;4.748;2023-04-01T12:05:08;4.00;;;1.60;;
74963;SDS011;63521;51.900;4.748;2023-04-01T12:19:17;4.32;;;2.30;;
74963;SDS011;63521;51.900;4.748;2023-04-01T12:21:26;4.03;;;1.80;;
74963;SDS011;63521;51.900;4.748;2023-04-01T12:26:59;3.70;;;1.77;;
74963;SDS011;63521;51.900;4.748;2023-04-01T12:37:35;4.57;;;1.90;;
74963;SDS011;63521;51.900;4.748;2023-04-01T12:48:48;4.82;;;2.00;;
74963;SDS011;63521;51.900;4.748;2023-04-01T12:51:41;5.10;;;2.00;;
74963;SDS011;63521;51.900;4.748;2023-04-01T13:02:55;2.83;;;1.70;;
74963;SDS011;63521;51.900;4.748;2023-04-01T13:11:20;2.92;;;1.60;;
74963;SDS011;63521;51.900;4.748;2023-04-01T13:16:42;2.97;;;1.70;;
74963;SDS011;63521;51.900;4.748;2023-04-01T13:19:28;3.00;;;1.90;;
74963;SDS011;63521;51.900;4.748;2023-04-01T13:25:03;4.05;;;1.83;;
74963;SDS011;63521;51.900;4.748;2023-04-01T13:27:37;2.67;;;1.50;;
74963;SDS011;63521;51.900;4.748;2023-04-01T13:33:15;2.70;;;1.63;;
74963;SDS011;63521;51.900;4.748;2023-04-01T13:35:52;3.80;;;1.92;;
74963;SDS011;63521;51.900;4.748;2023-04-01T13:44:02;3.67;;;1.77;;
74963;SDS011;63521;51.900;4.748;2023-04-01T13:46:41;3.63;;;1.90;;
74963;SDS011;63521;51.900;4.748;2023-04-01T13:49:26;2.83;;;1.75;;
74963;SDS011;63521;51.900;4.748;2023-04-01T13:51:58;5.90;;;1.80;;
74963;SDS011;63521;51.900;4.748;2023-04-01T14:19:50;2.53;;;1.63;;
74963;SDS011;63521;51.900;4.748;2023-04-01T14:22:31;5.03;;;1.83;;
74963;SDS011;63521;51.900;4.748;2023-04-01T14:28:05;4.45;;;2.03;;
74963;SDS011;63521;51.900;4.748;2023-04-01T14:39:00;4.13;;;1.70;;
74963;SDS011;63521;51.900;4.748;2023-04-01T14:50:05;3.65;;;1.80;;
74963;SDS011;63521;51.900;4.748;2023-04-01T14:52:36;2.88;;;1.70;;
74963;SDS011;63521;51.900;4.748;2023-04-01T14:58:14;3.50;;;1.63;;
74963;SDS011;63521;51.900;4.748;2023-04-01T15:03:36;2.80;;;1.58;;
74963;SDS011;63521;51.900;4.748;2023-04-01T15:11:42;2.58;;;1.42;;
74963;SDS011;63521;51.900;4.748;2023-04-01T15:28:00;2.10;;;1.50;;
74963;SDS011;63521;51.900;4.748;2023-04-01T15:30:37;2.25;;;1.50;;
74963;SDS011;63521;51.900;4.748;2023-04-01T15:33:24;3.70;;;2.03;;
74963;SDS011;63521;51.900;4.748;2023-04-01T15:36:04;2.28;;;1.70;;
74963;SDS011;63521;51.900;4.748;2023-04-01T15:38:43;3.22;;;1.40;;
74963;SDS011;63521;51.900;4.748;2023-04-01T15:41:14;2.63;;;1.75;;
74963;SDS011;63521;51.900;4.748;2023-04-01T15:43:58;2.65;;;1.48;;
74963;SDS011;63521;51.900;4.748;2023-04-01T16:07:47;2.85;;;1.60;;
74963;SDS011;63521;51.900;4.748;2023-04-01T16:10:21;2.67;;;1.83;;
74963;SDS011;63521;51.900;4.748;2023-04-01T16:21:24;2.72;;;1.90;;
74963;SDS011;63521;51.900;4.748;2023-04-01T16:24:03;2.60;;;1.48;;
74963;SDS011;63521;51.900;4.748;2023-04-01T16:37:52;3.47;;;1.65;;
74963;SDS011;63521;51.900;4.748;2023-04-01T16:40:33;4.07;;;1.67;;
74963;SDS011;63521;51.900;4.748;2023-04-01T16:43:10;3.97;;;1.63;;
74963;SDS011;63521;51.900;4.748;2023-04-01T16:45:53;3.38;;;1.73;;
74963;SDS011;63521;51.900;4.748;2023-04-01T16:48:21;2.45;;;1.58;;
74963;SDS011;63521;51.900;4.748;2023-04-01T16:50:52;2.85;;;1.70;;
74963;SDS011;63521;51.900;4.748;2023-04-01T16:59:03;3.08;;;1.73;;
74963;SDS011;63521;51.900;4.748;2023-04-01T17:04:23;3.13;;;1.95;;
74963;SDS011;63521;51.900;4.748;2023-04-01T17:10:00;3.63;;;1.90;;
74963;SDS011;63521;51.900;4.748;2023-04-01T17:15:46;2.80;;;2.00;;
74963;SDS011;63521;51.900;4.748;2023-04-01T17:20:55;3.65;;;2.00;;
74963;SDS011;63521;51.900;4.748;2023-04-01T17:23:27;4.90;;;2.00;;
74963;SDS011;63521;51.900;4.748;2023-04-01T17:26:11;3.65;;;2.00;;
74963;SDS011;63521;51.900;4.748;2023-04-01T17:28:52;2.90;;;1.75;;
74963;SDS011;63521;51.900;4.748;2023-04-01T17:45:09;2.60;;;1.80;;
74963;SDS011;63521;51.900;4.748;2023-04-01T17:47:41;3.63;;;1.83;;
74963;SDS011;63521;51.900;4.748;2023-04-01T17:55:55;2.50;;;1.70;;
74963;SDS011;63521;51.900;4.748;2023-04-01T18:01:22;2.58;;;1.73;;
74963;SDS011;63521;51.900;4.748;2023-04-01T18:12:15;1.98;;;1.52;;
74963;SDS011;63521;51.900;4.748;2023-04-01T18:17:25;1.95;;;1.65;;
74963;SDS011;63521;51.900;4.748;2023-04-01T18:22:43;2.00;;;1.40;;
74963;SDS011;63521;51.900;4.748;2023-04-01T18:25:12;2.20;;;1.50;;
74963;SDS011;63521;51.900;4.748;2023-04-01T18:27:43;1.85;;;1.48;;
74963;SDS011;63521;51.900;4.748;2023-04-01T18:52:24;2.20;;;1.38;;
74963;SDS011;63521;51.900;4.748;2023-04-01T18:57:37;1.88;;;1.30;;
74963;SDS011;63521;51.900;4.748;2023-04-01T19:00:08;1.45;;;1.35;;
74963;SDS011;63521;51.900;4.748;2023-04-01T19:02:45;3.30;;;1.60;;
74963;SDS011;63521;51.900;4.748;2023-04-01T19:05:19;1.70;;;1.40;;
74963;SDS011;63521;51.900;4.748;2023-04-01T19:07:46;2.03;;;1.40;;
74963;SDS011;63521;51.900;4.748;2023-04-01T19:21:29;2.08;;;1.10;;
74963;SDS011;63521;51.900;4.748;2023-04-01T19:38:00;1.80;;;1.20;;
74963;SDS011;63521;51.900;4.748;2023-04-01T19:43:17;1.53;;;1.30;;
74963;SDS011;63521;51.900;4.748;2023-04-01T19:45:51;1.63;;;1.30;;
74963;SDS011;63521;51.900;4.748;2023-04-01T19:51:09;1.48;;;1.30;;
74963;SDS011;63521;51.900;4.748;2023-04-01T19:53:49;2.00;;;1.40;;
74963;SDS011;63521;51.900;4.748;2023-04-01T19:56:23;1.83;;;1.30;;
74963;SDS011;63521;51.900;4.748;2023-04-01T19:58:58;1.45;;;1.10;;
74963;SDS011;63521;51.900;4.748;2023-04-01T20:01:47;1.83;;;1.30;;
74963;SDS011;63521;51.900;4.748;2023-04-01T20:06:55;1.50;;;1.38;;
74963;SDS011;63521;51.900;4.748;2023-04-01T20:09:33;1.75;;;1.40;;
74963;SDS011;63521;51.900;4.748;2023-04-01T20:12:39;1.92;;;1.40;;
74963;SDS011;63521;51.900;4.748;2023-04-01T20:15:35;2.03;;;1.50;;
74963;SDS011;63521;51.900;4.748;2023-04-01T20:18:05;1.50;;;1.33;;
74963;SDS011;63521;51.900;4.748;2023-04-01T20:20:37;2.85;;;1.60;;
74963;SDS011;63521;51.900;4.748;2023-04-01T20:25:49;2.83;;;1.70;;
74963;SDS011;63521;51.900;4.748;2023-04-01T21:00:32;2.63;;;1.75;;
74963;SDS011;63521;51.900;4.748;2023-04-01T21:11:20;6.47;;;2.08;;
74963;SDS011;63521;51.900;4.748;2023-04-01T21:25:09;3.40;;;2.25;;
74963;SDS011;63521;51.900;4.748;2023-04-01T21:32:45;4.43;;;2.30;;
74963;SDS011;63521;51.900;4.748;2023-04-01T21:35:31;3.22;;;2.15;;
74963;SDS011;63521;51.900;4.748;2023-04-01T21:44:10;3.13;;;1.90;;
74963;SDS011;63521;51.900;4.748;2023-04-01T21:59:01;4.63;;;2.30;;
74963;SDS011;63521;51.900;4.748;2023-04-01T22:20:20;3.53;;;2.47;;
74963;SDS011;63521;51.900;4.748;2023-04-01T22:25:31;3.25;;;2.10;;
74963;SDS011;63521;51.900;4.748;2023-04-01T22:28:25;4.07;;;2.20;;
74963;SDS011;63521;51.900;4.748;2023-04-01T22:30:58;3.35;;;2.17;;
74963;SDS011;63521;51.900;4.748;2023-04-01T22:33:38;3.67;;;2.40;;
74963;SDS011;63521;51.900;4.748;2023-04-01T22:36:42;3.92;;;2.28;;
74963;SDS011;63521;51.900;4.748;2023-04-01T22:42:10;4.43;;;2.28;;
74963;SDS011;63521;51.900;4.748;2023-04-01T22:49:50;3.88;;;2.30;;
74963;SDS011;63521;51.900;4.748;2023-04-01T22:52:29;3.38;;;2.17;;
74963;SDS011;63521;51.900;4.748;2023-04-01T22:55:00;4.07;;;2.28;;
74963;SDS011;63521;51.900;4.748;2023-04-01T23:00:16;4.03;;;2.20;;
74963;SDS011;63521;51.900;4.748;2023-04-01T23:03:29;2.88;;;2.00;;
74963;SDS011;63521;51.900;4.748;2023-04-01T23:11:15;4.13;;;2.40;;
74963;SDS011;63521;51.900;4.748;2023-04-01T23:13:57;5.25;;;2.53;;
74963;SDS011;63521;51.900;4.748;2023-04-01T23:16:40;5.53;;;2.60;;
74963;SDS011;63521;51.900;4.748;2023-04-01T23:19:11;5.13;;;3.00;;
74963;SDS011;63521;51.900;4.748;2023-04-01T23:21:48;4.05;;;2.45;;
74963;SDS011;63521;51.900;4.748;2023-04-01T23:24:33;5.32;;;2.50;;
74963;SDS011;63521;51.900;4.748;2023-04-01T23:27:05;4.22;;;2.55;;
74963;SDS011;63521;51.900;4.748;2023-04-01T23:29:36;4.38;;;2.70;;
74963;SDS011;63521;51.900;4.748;2023-04-01T23:32:03;5.30;;;2.55;;
74963;SDS011;63521;51.900;4.748;2023-04-01T23:34:33;4.72;;;2.67;;
74963;SDS011;63521;51.900;4.748;2023-04-01T23:37:10;4.28;;;2.53;;
74963;SDS011;63521;51.900;4.748;2023-04-01T23:39:48;3.50;;;2.60;;
74963;SDS011;63521;51.900;4.748;2023-04-01T23:42:19;4.07;;;2.15;;
74963;SDS011;63521;51.900;4.748;2023-04-01T23:44:48;3.97;;;2.42;;
74963;SDS011;63521;51.900;4.748;2023-04-01T23:47:16;4.65;;;2.40;;
74963;SDS011;63521;51.900;4.748;2023-04-01T23:49:48;3.50;;;2.30;;
74963;SDS011;63521;51.900;4.748;2023-04-01T23:52:23;5.03;;;2.88;;
74963;SDS011;63521;51.900;4.748;2023-04-01T23:58:12;4.20;;;2.60;;
